Terminal Aerodrome Forecast
Issued by NWS

Home | Current Version | Previous Version | Text Only | Print | Product List | Glossary On
Versions: 1 2 3 4 5 6 7 8 9 10 11 12 13 14 15 16 17 18 19 20 21
620
FTPA31 PHFO 241127
TAFHNY
TAF
PHNY 241127Z 2412/2512 VRB06KT P6SM FEW020 SCT035
     FM242000 04012KT P6SM FEW020 SCT035
     FM250600 04009KT P6SM SCT020 BKN035=

USA.gov is the U.S. government's official web portal to all federal, state and local government web resources and services.